Latest Weather Observations for Lake Macquarie - Cooranbong

IDN60901

Issued at 5:11 pm EDT Tuesday 26 March 2019 (issued every 10 minutes, with the page automatically refreshed every 10 minutes)

About weather observations | Map of Sydney area stations | Latest observations for Sydney area | Other Formats
Station Details ID: 061412 Name: LAKE MACQUARIE AWS Lat: -33.09 Lon: 151.46 Height: 6.0 m
Data from the previous 72 hours. | See also: Recent months at Lake Macquarie - Cooranbong
Date/Time
EDT
Temp
°C
App
Temp
°C
Dew
Point
°C
Rel
Hum
%
Delta-T
°C
Wind Press
QNH
hPa
Press
MSL
hPa
Rain since
9am
mm
Dir  Spd
km/h
Gust
km/h
Spd
kts
Gust
kts
26/05:00pm 24.5 23.1 10.8 42 7.6 ESE 9 15 5 8 1015.5 1015.5 0.2
26/04:30pm 26.4 25.0 9.7 35 9.2 S 7 15 4 8 1015.3 1015.3 0.2
26/04:00pm 27.1 25.9 9.5 33 9.7 SW 6 11 3 6 1015.1 1015.1 0.2
26/03:30pm 26.4 24.4 8.8 33 9.6 WSW 9 15 5 8 1015.0 1015.0 0.2
26/03:00pm 26.0 24.1 8.9 34 9.3 SW 9 15 5 8 1015.0 1015.0 0.2
26/02:30pm 25.9 24.4 9.3 35 9.1 W 7 17 4 9 1014.9 1014.9 0.2
26/02:00pm 25.6 23.9 9.8 37 8.7 WNW 9 19 5 10 1014.8 1014.8 0.2
26/01:30pm 24.9 23.5 10.8 41 7.9 WNW 9 17 5 9 1015.6 1015.6 0.2
26/01:00pm 24.0 22.7 11.3 45 7.1 SW 9 15 5 8 1016.1 1016.1 0.2
26/12:30pm 23.8 22.7 12.1 48 6.6 WSW 9 19 5 10 1016.5 1016.5 0.2
26/12:00pm 23.2 21.8 10.9 46 6.8 WSW 9 17 5 9 1016.4 1016.4 0.0
26/11:30am 23.0 21.8 11.7 49 6.4 NW 9 17 5 9 1016.0 1016.0 0.0
26/11:00am 22.3 21.0 11.4 50 6.1 W 9 20 5 11 1016.2 1016.2 0.0
26/10:30am 21.6 20.1 10.4 49 6.1 W 9 17 5 9 1016.4 1016.4 0.0
26/10:00am 21.2 20.5 12.1 56 5.1 WSW 7 15 4 8 1016.4 1016.4 0.0
26/09:30am 20.4 20.3 13.4 64 4.0 WNW 6 11 3 6 1016.0 1016.0 0.0
26/09:00am 20.1 19.8 13.3 65 3.9 W 7 15 4 8 1015.7 1015.7 0.4
26/08:30am 18.1 20.3 16.6 91 0.9 CALM 0 2 0 1 1015.4 1015.4 0.4
26/08:00am 17.6 19.6 15.9 90 1.0 CALM 0 0 0 0 1015.0 1015.0 0.4
26/07:30am 17.9 19.9 15.9 88 1.2 CALM 0 0 0 0 1014.7 1014.7 0.4
26/07:00am 18.6 20.7 16.2 86 1.4 CALM 0 4 0 2 1014.4 1014.4 0.4
26/06:30am 19.0 21.2 16.4 85 1.6 CALM 0 0 0 0 1014.0 1014.0 0.4
26/06:00am 19.0 20.6 16.0 83 1.8 NNW 2 2 1 1 1013.6 1013.6 0.4
26/05:30am 19.3 20.9 16.0 81 2.0 NW 2 6 1 3 1013.4 1013.4 0.4
26/05:00am 19.4 20.1 15.7 79 2.2 NW 6 7 3 4 1013.6 1013.6 0.4
26/04:30am 20.1 20.4 15.9 77 2.5 W 9 13 5 7 1013.7 1013.7 0.4
26/04:00am 21.6 23.4 17.4 77 2.6 W 4 6 2 3 1013.4 1013.4 0.2
26/03:30am 21.2 22.9 18.0 82 2.0 WSW 6 9 3 5 1013.1 1013.1 0.2
26/03:00am 21.5 24.0 18.1 81 2.1 SSE 2 4 1 2 1013.1 1013.1 0.2
26/02:30am 22.3 24.1 18.3 78 2.5 SW 6 13 3 7 1012.8 1012.8 0.2
26/02:00am 22.9 25.1 18.4 76 2.8 SW 4 7 2 4 1012.5 1012.5 0.2
26/01:30am 22.1 24.3 18.3 79 2.4 SSW 4 7 2 4 1012.6 1012.6 0.2
26/01:00am 21.9 24.4 18.1 79 2.4 WNW 2 4 1 2 1012.5 1012.5 0.2
26/12:30am 22.5 24.7 18.3 77 2.6 NNW 4 6 2 3 1012.2 1012.2 0.2
26/12:00am 23.5 25.5 17.9 71 3.5 NNW 4 6 2 3 1011.9 1011.9 0.2
 
Date/Time
EDT
Temp
°C
App
Temp
°C
Dew
Point
°C
Rel
Hum
%
Delta-T
°C
Wind Press
QNH
hPa
Press
MSL
hPa
Rain since
9am
mm
Dir  Spd
km/h
Gust
km/h
Spd
kts
Gust
kts
25/11:30pm 24.4 26.7 17.6 66 4.2 NNW 2 6 1 3 1011.9 1011.9 0.2
25/11:00pm 25.0 26.3 17.5 63 4.7 NNW 7 17 4 9 1011.8 1011.8 0.2
25/10:30pm 24.8 26.3 17.5 64 4.6 NNW 6 11 3 6 1012.0 1012.0 0.2
25/10:00pm 25.0 26.5 17.7 64 4.6 NNW 6 13 3 7 1011.7 1011.7 0.2
25/09:30pm 25.0 27.1 18.0 65 4.4 NNW 4 9 2 5 1011.4 1011.4 0.2
25/09:00pm 25.0 26.7 18.0 65 4.4 NNW 6 9 3 5 1011.3 1011.3 0.2
25/08:30pm 23.9 26.4 19.0 74 3.1 N 4 7 2 4 1011.0 1011.0 0.2
25/08:00pm 23.2 25.9 18.7 76 2.8 N 2 7 1 4 1010.6 1010.6 0.2
25/07:30pm 23.4 25.9 19.1 77 2.7 NNE 4 6 2 3 1010.3 1010.3 0.2
25/07:00pm 23.8 26.2 18.9 74 3.1 NNE 4 6 2 3 1010.3 1010.3 0.2
25/06:30pm 24.8 26.7 19.0 70 3.7 NNE 7 13 4 7 1010.1 1010.1 0.2
25/06:00pm 24.8 26.8 18.7 69 3.9 N 6 9 3 5 1010.0 1010.0 0.2
25/05:30pm 24.8 27.0 19.2 71 3.6 NNE 6 11 3 6 1009.1 1009.1 0.2
25/05:00pm 24.5 27.1 19.3 73 3.3 ENE 4 7 2 4 1008.8 1008.8 0.2
25/04:30pm 25.0 26.8 18.2 66 4.3 NE 6 20 3 11 1008.8 1008.8 0.2
25/04:00pm 25.7 27.6 18.6 65 4.5 NNW 6 11 3 6 1009.3 1009.3 0.2
25/03:30pm 25.5 26.5 18.7 66 4.3 N 11 24 6 13 1008.9 1008.9 0.2
25/03:00pm 25.5 26.2 18.9 67 4.2 NNW 13 24 7 13 1009.5 1009.5 0.2
25/02:30pm 25.2 25.9 18.9 68 4.0 NNW 13 32 7 17 1009.5 1009.5 0.2
25/02:00pm 25.0 26.0 19.4 71 3.6 N 13 30 7 16 1009.5 1009.5 0.2
25/01:30pm 25.1 26.6 19.7 72 3.5 N 11 20 6 11 1009.2 1009.2 0.2
25/01:00pm 25.1 26.6 19.7 72 3.5 NNW 11 24 6 13 1010.0 1010.0 0.2
25/12:30pm 24.5 26.1 20.0 76 2.9 N 11 22 6 12 1009.5 1009.5 0.2
25/12:00pm 23.4 23.8 19.1 77 2.7 N 15 32 8 17 1010.3 1010.3 0.2
25/11:30am 22.8 24.5 19.4 81 2.2 N 9 19 5 10 1011.1 1011.1 0.2
25/11:00am 21.8 23.4 18.2 80 2.2 NW 7 15 4 8 1011.8 1011.8 0.2
25/10:30am 21.9 23.2 17.5 76 2.7 NW 7 13 4 7 1011.9 1011.9 0.0
25/10:00am 21.7 23.6 17.7 78 2.5 WNW 4 9 2 5 1011.6 1011.6 0.0
25/09:30am 21.6 24.4 18.8 84 1.8 WNW 2 7 1 4 1011.7 1011.7 0.0
25/09:00am 21.6 22.8 18.2 81 2.1 W 9 15 5 8 1011.8 1011.8 2.4
25/08:30am 21.4 23.5 19.0 86 1.5 W 6 11 3 6 1012.0 1012.0 2.4
25/08:00am 21.3 24.5 19.8 91 1.0 WNW 2 7 1 4 1011.6 1011.6 2.4
25/07:30am 21.4 24.5 19.5 89 1.2 WSW 2 7 1 4 1011.4 1011.4 2.4
25/07:00am 21.4 24.4 20.0 92 0.9 W 4 11 2 6 1011.3 1011.3 2.0
25/06:30am 21.3 24.7 20.1 93 0.8 SSE 2 6 1 3 1009.6 1009.6 1.2
25/06:00am 21.5 24.6 20.3 93 0.8 WSW 4 9 2 5 1009.9 1009.9 0.2
25/05:30am 21.3 25.2 20.3 94 0.6 CALM 0 0 0 0 1008.5 1008.5 0.2
25/05:00am 21.4 25.2 20.2 93 0.8 CALM 0 0 0 0 1008.8 1008.8 0.2
25/04:30am 21.3 24.8 20.3 94 0.6 NNE 2 2 1 1 1009.2 1009.2 0.2
25/04:00am 21.2 25.0 20.2 94 0.6 CALM 0 0 0 0 1008.8 1008.8 0.2
25/03:30am 21.4 24.5 20.2 93 0.8 N 4 7 2 4 1008.9 1008.9 0.2
25/03:00am 21.5 24.8 20.0 91 1.0 E 2 6 1 3 1009.5 1009.5 0.2
25/02:30am 21.4 25.1 19.9 91 1.0 CALM 0 0 0 0 1009.2 1009.2 0.2
25/02:00am 21.5 25.1 19.8 90 1.1 CALM 0 0 0 0 1009.5 1009.5 0.2
25/01:30am 21.7 25.1 19.4 87 1.5 CALM 0 0 0 0 1009.9 1009.9 0.2
25/01:00am 21.9 25.1 19.8 88 1.3 NE 2 4 1 2 1010.4 1010.4 0.2
25/12:30am 22.7 26.4 19.9 84 1.8 CALM 0 2 0 1 1011.1 1011.1 0.2
25/12:00am 22.9 26.3 20.1 84 1.8 NNW 2 4 1 2 1011.3 1011.3 0.2
 
Date/Time
EDT
Temp
°C
App
Temp
°C
Dew
Point
°C
Rel
Hum
%
Delta-T
°C
Wind Press
QNH
hPa
Press
MSL
hPa
Rain since
9am
mm
Dir  Spd
km/h
Gust
km/h
Spd
kts
Gust
kts
24/11:30pm 23.3 26.4 20.2 83 2.0 N 4 6 2 3 1011.6 1011.6 0.2
24/11:00pm 23.3 26.0 20.2 83 2.0 N 6 13 3 7 1011.7 1011.7 0.2
24/10:30pm 23.2 25.8 20.5 85 1.8 N 7 11 4 6 1011.9 1011.9 0.2
24/10:00pm 22.9 27.0 20.8 88 1.4 CALM 0 0 0 0 1012.0 1012.0 0.2
24/09:30pm 22.9 26.7 20.2 85 1.7 CALM 0 2 0 1 1012.0 1012.0 0.2
24/09:00pm 23.6 27.8 20.9 85 1.8 CALM 0 0 0 0 1011.9 1011.9 0.2
24/08:30pm 23.7 27.7 20.6 83 2.0 CALM 0 0 0 0 1011.8 1011.8 0.2
24/08:00pm 24.0 27.6 20.5 81 2.3 NNW 2 4 1 2 1011.3 1011.3 0.2
24/07:30pm 24.9 28.0 19.5 72 3.5 SW 2 2 1 1 1010.8 1010.8 0.2
24/07:00pm 25.8 28.7 19.9 70 3.8 SW 4 7 2 4 1010.5 1010.5 0.2
24/06:30pm 26.9 30.7 21.0 70 3.9 SSE 2 6 1 3 1009.7 1009.7 0.2
24/06:00pm 27.1 30.6 20.4 66 4.4 SSE 2 4 1 2 1009.6 1009.6 0.2
24/05:30pm 27.6 30.7 19.4 61 5.3 SSW 2 7 1 4 1009.8 1009.8 0.2
24/05:00pm 28.2 30.4 19.2 58 5.8 S 6 11 3 6 1009.7 1009.7 0.2
24/04:30pm 28.1 30.3 19.3 58 5.7 SSE 6 11 3 6 1009.9 1009.9 0.2
24/04:00pm 28.9 31.3 20.1 59 5.8 SE 7 13 4 7 1009.9 1009.9 0.2
24/03:30pm 28.9 30.4 19.8 58 5.9 SE 11 20 6 11 1009.9 1009.9 0.2
24/03:00pm 30.5 32.8 21.3 58 6.2 SE 11 19 6 10 1009.8 1009.8 0.2
24/02:30pm 30.4 33.4 22.6 63 5.3 ESE 11 17 6 9 1010.1 1010.1 0.2
24/02:00pm 30.3 33.5 23.0 65 5.0 ESE 11 15 6 8 1010.4 1010.4 0.2
24/01:30pm 29.9 32.9 22.6 65 5.0 E 11 17 6 9 1010.7 1010.7 0.2
24/01:00pm 31.5 35.6 23.3 61 5.7 ENE 7 11 4 6 1010.9 1010.9 0.2
24/12:30pm 31.4 35.2 22.4 59 6.1 E 6 9 3 5 1011.0 1011.0 0.2
24/12:00pm 31.9 36.3 21.4 53 7.1 CALM 0 2 0 1 1011.2 1011.2 0.2
24/11:30am 31.5 36.5 22.5 59 6.1 CALM 0 2 0 1 1011.5 1011.5 0.2
24/11:00am 30.5 33.2 19.5 51 7.2 NW 4 11 2 6 1011.5 1011.5 0.2
24/10:30am 29.0 32.3 20.7 61 5.5 SSW 4 6 2 3 1011.5 1011.5 0.2
24/10:00am 27.8 32.8 23.2 76 3.1 ENE 2 6 1 3 1011.3 1011.3 0.2
24/09:30am 25.2 29.4 21.7 81 2.3 E 2 4 1 2 1011.3 1011.3 0.0
24/09:00am 22.8 25.9 20.3 86 1.6 SSE 4 6 2 3 1011.5 1011.5 18.6
24/08:30am 21.1 24.6 20.3 95 0.5 SE 2 4 1 2 1011.4 1011.4 18.6
24/08:00am 19.4 22.6 18.9 97 0.3 CALM 0 0 0 0 1011.3 1011.3 18.6
24/07:30am 19.2 22.3 18.7 97 0.3 CALM 0 0 0 0 1011.0 1011.0 18.6
24/07:00am 18.6 21.5 18.1 97 0.3 CALM 0 0 0 0 1010.7 1010.7 18.6
24/06:30am 18.7 21.5 18.0 96 0.4 CALM 0 0 0 0 1010.7 1010.7 18.6
24/06:00am 19.0 21.9 18.3 96 0.4 CALM 0 0 0 0 1010.8 1010.8 18.6
24/05:30am 19.2 22.2 18.5 96 0.4 CALM 0 2 0 1 1010.7 1010.7 18.6
24/05:00am 19.1 22.1 18.4 96 0.4 CALM 0 0 0 0 1010.6 1010.6 18.6
24/04:30am 19.1 22.1 18.4 96 0.4 CALM 0 0 0 0 1010.6 1010.6 18.6
24/04:00am 19.2 22.2 18.5 96 0.4 CALM 0 0 0 0 1010.6 1010.6 18.6
24/03:30am 19.5 22.7 18.8 96 0.4 CALM 0 0 0 0 1010.8 1010.8 18.6
24/03:00am 19.7 23.0 19.0 96 0.4 CALM 0 0 0 0 1011.3 1011.3 18.6
24/02:30am 19.8 23.1 19.1 96 0.4 CALM 0 0 0 0 1011.7 1011.7 18.6
24/02:00am 19.7 22.9 18.9 95 0.5 CALM 0 0 0 0 1012.3 1012.3 18.6
24/01:30am 19.7 22.9 18.9 95 0.5 CALM 0 0 0 0 1012.5 1012.5 18.6
24/01:00am 19.8 23.1 19.0 95 0.5 CALM 0 0 0 0 1012.9 1012.9 18.6
24/12:30am 19.8 23.0 18.8 94 0.6 CALM 0 0 0 0 1012.9 1012.9 18.6
24/12:00am 20.0 22.4 18.8 93 0.8 NW 4 6 2 3 1013.0 1013.0 18.6
 
Date/Time
EDT
Temp
°C
App
Temp
°C
Dew
Point
°C
Rel
Hum
%
Delta-T
°C
Wind Press
QNH
hPa
Press
MSL
hPa
Rain since
9am
mm
Dir  Spd
km/h
Gust
km/h
Spd
kts
Gust
kts
23/11:30pm 19.9 21.8 18.9 94 0.6 N 7 13 4 7 1013.0 1013.0 18.6
23/11:00pm 19.8 21.5 18.6 93 0.7 N 7 17 4 9 1014.0 1014.0 18.6
23/10:30pm 20.7 22.6 19.7 94 0.6 NNE 9 19 5 10 1014.7 1014.7 16.4
23/10:14pm 21.7 21.5 19.8 89 1.2 WNW 20 52 11 28 1015.9 1015.9 6.2
23/10:00pm 23.5 27.6 22.3 93 0.8 S 4 6 2 3 1013.9 1013.9 0.4
23/09:30pm 23.4 27.7 21.1 87 1.5 CALM 0 6 0 3 1011.8 1011.8 0.0
23/09:00pm 23.5 27.5 20.6 84 1.9 CALM 0 2 0 1 1012.2 1012.2 0.0
23/08:30pm 23.5 26.7 20.6 84 1.9 S 4 4 2 2 1012.0 1012.0 0.0
23/08:00pm 23.6 27.4 20.9 85 1.8 S 2 6 1 3 1011.5 1011.5 0.0
23/07:30pm 24.0 27.5 21.1 84 1.9 SE 4 6 2 3 1011.1 1011.1 0.0
23/07:00pm 24.1 27.2 21.0 83 2.0 ESE 6 11 3 6 1010.8 1010.8 0.0
23/06:30pm 24.3 27.3 20.8 81 2.3 ESE 6 9 3 5 1010.5 1010.5 0.0
23/06:00pm 24.4 27.0 20.5 79 2.5 ESE 7 11 4 6 1010.4 1010.4 0.0
23/05:30pm 24.7 26.9 20.4 77 2.8 ESE 9 17 5 9 1010.3 1010.3 0.0

Latest Capital City Observations: Canberra | Sydney | Melbourne | Brisbane | Adelaide | Perth | Hobart | Darwin

Other formats

Comma delimited format used in spreadsheet applications
http://www.bom.gov.au/fwo/IDN60901/IDN60901.95767.axf

JavaScript Object Notation format (JSON) in row-major order
http://www.bom.gov.au/fwo/IDN60901/IDN60901.95767.json

Data quality

Most of these data are generated automatically and are frequently updated. Quality checks on data are not normally performed. It is possible for incorrect values to appear. Refer to information at About Latest Weather Observations and please check the disclaimer before using these data.